createdAt,value
2022-09-24T00:01:26.255Z,36.02
2022-09-24T00:03:54.963Z,36.18
2022-09-24T00:06:22.375Z,36.21
2022-09-24T00:08:50.529Z,36.26
2022-09-24T00:11:21.014Z,36.11
2022-09-24T00:13:48.593Z,35.83
2022-09-24T00:16:16.549Z,35.71
2022-09-24T00:18:44.362Z,35.74
2022-09-24T00:21:14.367Z,35.67
2022-09-24T00:23:41.513Z,35.80
2022-09-24T00:26:32.377Z,35.55
2022-09-24T00:28:59.597Z,35.58
2022-09-24T00:31:27.038Z,35.95
2022-09-24T00:33:54.349Z,36.41
2022-09-24T00:36:21.885Z,35.99
2022-09-24T00:38:53.438Z,36.43
2022-09-24T00:41:20.998Z,36.62
2022-09-24T00:43:48.590Z,36.80
2022-09-24T00:46:18.852Z,36.63
2022-09-24T00:48:46.635Z,36.29
2022-09-24T00:51:14.896Z,36.48
2022-09-24T00:53:42.099Z,36.57
2022-09-24T00:56:10.434Z,36.59
2022-09-24T00:58:37.833Z,36.85
2022-09-24T01:01:05.550Z,36.78
2022-09-24T01:03:33.007Z,36.83
2022-09-24T01:06:00.411Z,36.68
2022-09-24T01:08:27.636Z,36.74
2022-09-24T01:11:03.755Z,36.62
2022-09-24T01:13:49.644Z,36.81
2022-09-24T01:16:24.493Z,36.86
2022-09-24T01:19:10.189Z,36.91
2022-09-24T01:21:56.333Z,36.68
2022-09-24T01:24:26.493Z,36.73
2022-09-24T01:27:12.051Z,36.77
2022-09-24T01:29:52.423Z,36.91
2022-09-24T01:32:22.822Z,36.67
2022-09-24T01:34:55.837Z,36.72
2022-09-24T01:37:23.206Z,36.55
2022-09-24T01:39:51.366Z,36.72
2022-09-24T01:42:18.726Z,36.56
2022-09-24T01:44:45.905Z,36.22
2022-09-24T01:47:15.225Z,36.14
2022-09-24T01:49:42.647Z,36.50
2022-09-24T01:52:10.723Z,37.03
2022-09-24T01:54:39.387Z,36.68
2022-09-24T01:57:07.090Z,36.87
2022-09-24T02:00:03.854Z,36.89
2022-09-24T02:02:39.707Z,36.60
2022-09-24T02:05:08.504Z,36.71
2022-09-24T02:07:36.381Z,37.08
2022-09-24T02:10:03.930Z,37.00
2022-09-24T02:12:32.927Z,36.46
2022-09-24T02:15:11.219Z,36.35
2022-09-24T02:17:39.618Z,36.38
2022-09-24T02:20:08.849Z,36.39
2022-09-24T02:22:35.962Z,36.20
2022-09-24T02:25:04.547Z,36.01
2022-09-24T02:27:31.689Z,36.23
2022-09-24T02:29:59.090Z,36.79
2022-09-24T02:32:27.010Z,36.59
2022-09-24T02:34:55.356Z,36.31
2022-09-24T02:37:23.213Z,35.96
2022-09-24T02:39:50.711Z,35.78
2022-09-24T02:42:18.192Z,35.63
2022-09-24T02:44:45.324Z,35.53
2022-09-24T02:47:12.968Z,35.19
2022-09-24T02:49:40.279Z,35.27
2022-09-24T02:52:07.512Z,35.34
2022-09-24T02:54:34.915Z,35.70
2022-09-24T02:57:02.063Z,35.84
2022-09-24T02:59:29.199Z,35.84
2022-09-24T03:01:56.692Z,35.93
2022-09-24T03:04:24.161Z,35.82
2022-09-24T03:06:51.288Z,35.97
2022-09-24T03:09:18.748Z,35.82
2022-09-24T03:11:47.365Z,35.83
2022-09-24T03:14:14.489Z,36.14
2022-09-24T03:16:41.929Z,36.46
2022-09-24T03:19:09.093Z,36.26
2022-09-24T03:21:36.610Z,36.11
2022-09-24T03:24:04.192Z,36.20
2022-09-24T03:26:31.846Z,36.79
2022-09-24T03:28:58.999Z,36.86
2022-09-24T03:31:26.475Z,36.81
2022-09-24T03:33:53.733Z,36.49
2022-09-24T03:36:22.805Z,36.51
2022-09-24T03:38:51.388Z,36.67
2022-09-24T03:41:18.599Z,36.74
2022-09-24T03:43:45.725Z,36.62
2022-09-24T03:46:13.392Z,36.56
2022-09-24T03:48:42.990Z,36.57
2022-09-24T03:51:11.265Z,36.48
2022-09-24T03:53:38.731Z,36.70
2022-09-24T03:56:07.538Z,36.97
2022-09-24T03:58:36.626Z,36.90
2022-09-24T04:01:04.452Z,37.05
2022-09-24T04:03:32.052Z,37.32
2022-09-24T04:05:59.167Z,37.43
2022-09-24T04:08:26.293Z,37.29
2022-09-24T04:10:53.739Z,37.36
2022-09-24T04:13:21.209Z,37.48
2022-09-24T04:15:50.394Z,37.64
2022-09-24T04:18:18.012Z,37.39
2022-09-24T04:20:45.315Z,37.23
2022-09-24T04:23:12.468Z,37.29
2022-09-24T04:25:42.895Z,37.32
2022-09-24T04:28:10.160Z,37.91
2022-09-24T04:30:38.350Z,37.78
2022-09-24T04:33:07.491Z,37.74
2022-09-24T04:35:37.158Z,37.57
2022-09-24T04:38:04.688Z,37.66
2022-09-24T04:40:32.245Z,38.50
2022-09-24T04:42:59.598Z,38.38
2022-09-24T04:45:26.911Z,38.40
2022-09-24T04:47:57.622Z,38.74
2022-09-24T04:50:29.156Z,38.69
2022-09-24T04:52:56.589Z,38.77
2022-09-24T04:55:23.952Z,38.72
2022-09-24T04:57:51.283Z,38.65
2022-09-24T05:00:19.752Z,38.65
2022-09-24T05:02:47.140Z,38.63
2022-09-24T05:05:14.445Z,38.85
2022-09-24T05:07:42.661Z,39.08
2022-09-24T05:10:09.817Z,39.09
2022-09-24T05:12:36.968Z,38.66
2022-09-24T05:15:04.573Z,38.37
2022-09-24T05:17:39.904Z,37.89
2022-09-24T05:20:11.247Z,38.10
2022-09-24T05:22:42.015Z,38.33
2022-09-24T05:25:09.546Z,38.34
2022-09-24T05:27:36.665Z,39.05
2022-09-24T05:30:04.156Z,38.32
2022-09-24T05:32:34.125Z,40.51
2022-09-24T05:35:01.301Z,39.00
2022-09-24T05:37:28.459Z,39.34
2022-09-24T05:39:57.779Z,39.09
2022-09-24T05:42:24.936Z,39.12
2022-09-24T05:44:52.477Z,42.47
2022-09-24T05:47:19.959Z,39.96
2022-09-24T05:49:47.107Z,39.20
2022-09-24T05:52:14.296Z,39.32
2022-09-24T05:54:41.713Z,39.10
2022-09-24T05:57:08.856Z,38.95
2022-09-24T05:59:36.002Z,41.96
2022-09-24T06:02:03.454Z,39.67
2022-09-24T06:04:31.172Z,39.90
2022-09-24T06:06:58.338Z,39.86
2022-09-24T06:09:25.470Z,39.49
2022-09-24T06:11:54.105Z,39.31
2022-09-24T06:14:21.318Z,38.86
2022-09-24T06:16:48.436Z,40.23
2022-09-24T06:19:15.880Z,39.24
2022-09-24T06:21:43.046Z,40.41
2022-09-24T06:24:10.193Z,40.36
2022-09-24T06:26:37.888Z,40.23
2022-09-24T06:29:05.510Z,40.21
2022-09-24T06:31:33.008Z,40.87
2022-09-24T06:34:02.660Z,39.05
2022-09-24T06:36:29.806Z,41.48
2022-09-24T06:38:58.615Z,40.13
2022-09-24T06:41:26.014Z,42.10
2022-09-24T06:43:54.688Z,43.95
2022-09-24T06:46:23.326Z,41.45
2022-09-24T06:48:50.875Z,43.90
2022-09-24T06:51:18.030Z,42.83
2022-09-24T06:53:45.163Z,40.14
2022-09-24T06:56:12.753Z,40.91
2022-09-24T06:58:39.898Z,42.95
2022-09-24T07:01:07.147Z,42.29
2022-09-24T07:03:35.008Z,42.20
2022-09-24T07:06:03.556Z,40.56
2022-09-24T07:08:30.774Z,41.28
2022-09-24T07:10:58.258Z,40.76
2022-09-24T07:13:25.385Z,42.49
2022-09-24T07:15:52.954Z,43.88
2022-09-24T07:18:20.598Z,44.40
2022-09-24T07:20:54.142Z,46.23
2022-09-24T07:23:21.725Z,44.34
2022-09-24T07:25:49.126Z,43.50
2022-09-24T07:28:17.373Z,42.88
2022-09-24T07:30:44.807Z,42.32
2022-09-24T07:33:11.993Z,41.73
2022-09-24T07:35:39.289Z,42.32
2022-09-24T07:38:07.788Z,42.13
2022-09-24T07:40:34.977Z,42.16
2022-09-24T07:43:03.500Z,41.71
2022-09-24T07:45:32.392Z,41.07
2022-09-24T07:48:00.262Z,40.27
2022-09-24T07:50:28.147Z,40.34
2022-09-24T07:52:55.621Z,39.88
2022-09-24T07:55:23.348Z,40.66
2022-09-24T07:57:51.864Z,40.02
2022-09-24T08:00:19.630Z,40.04
2022-09-24T08:02:47.678Z,38.67
2022-09-24T08:05:15.410Z,38.77
2022-09-24T08:07:42.858Z,37.24
2022-09-24T08:10:10.447Z,35.79
2022-09-24T08:12:37.707Z,36.82
2022-09-24T08:15:05.217Z,37.49
2022-09-24T08:17:32.820Z,38.87
2022-09-24T08:19:59.933Z,37.92
2022-09-24T08:22:27.089Z,37.82
2022-09-24T08:24:54.894Z,39.24
2022-09-24T08:27:23.216Z,40.67
2022-09-24T08:29:50.407Z,40.48
2022-09-24T08:32:18.305Z,38.54
2022-09-24T08:34:45.450Z,38.83
2022-09-24T08:37:13.859Z,41.08
2022-09-24T08:39:41.385Z,38.53
2022-09-24T08:42:27.301Z,38.38
2022-09-24T08:45:13.582Z,39.97
2022-09-24T08:47:46.112Z,39.57
2022-09-24T08:50:21.132Z,37.92
2022-09-24T08:53:07.219Z,37.77
2022-09-24T08:55:54.860Z,37.02
2022-09-24T08:58:24.898Z,36.96
2022-09-24T09:00:55.657Z,37.37
2022-09-24T09:03:26.345Z,36.06
2022-09-24T09:06:03.973Z,35.84
2022-09-24T09:09:01.769Z,35.56
2022-09-24T09:11:28.607Z,35.32
2022-09-24T09:13:58.055Z,38.95
2022-09-24T09:16:27.135Z,37.08
2022-09-24T09:18:56.196Z,35.58
2022-09-24T09:21:42.185Z,35.85
2022-09-24T09:24:15.956Z,35.64
2022-09-24T09:26:43.763Z,37.26
2022-09-24T09:29:11.366Z,35.45
2022-09-24T09:31:57.138Z,37.25
2022-09-24T09:34:43.459Z,38.27
2022-09-24T09:37:25.900Z,38.45
2022-09-24T09:40:02.696Z,39.08
2022-09-24T09:42:32.274Z,38.01
2022-09-24T09:45:00.991Z,40.02
2022-09-24T09:47:36.063Z,38.16
2022-09-24T09:50:05.939Z,35.88
2022-09-24T09:52:36.908Z,37.79
2022-09-24T09:55:05.308Z,37.30
2022-09-24T09:57:32.389Z,38.20
2022-09-24T09:59:59.515Z,38.50
2022-09-24T10:02:31.247Z,37.26
2022-09-24T10:04:59.176Z,37.97
2022-09-24T10:07:26.358Z,37.81
2022-09-24T10:10:01.417Z,36.00
2022-09-24T10:12:29.071Z,35.25
2022-09-24T10:15:00.333Z,37.17
2022-09-24T10:17:28.812Z,36.34
2022-09-24T10:19:56.227Z,35.56
2022-09-24T10:22:26.796Z,35.42
2022-09-24T10:24:54.604Z,35.82
2022-09-24T10:27:30.906Z,34.58
2022-09-24T10:30:16.770Z,34.33
2022-09-24T10:32:44.216Z,33.75
2022-09-24T10:35:21.845Z,33.33
2022-09-24T10:37:53.439Z,34.32
2022-09-24T10:40:28.331Z,32.24
2022-09-24T10:42:57.277Z,31.64
2022-09-24T10:45:26.761Z,31.32
2022-09-24T10:47:57.127Z,31.77
2022-09-24T10:50:30.873Z,31.05
2022-09-24T10:53:00.986Z,30.93
2022-09-24T10:55:47.387Z,31.07
2022-09-24T10:58:23.116Z,30.22
2022-09-24T11:00:58.088Z,30.50
2022-09-24T11:03:43.109Z,30.88
2022-09-24T11:06:14.624Z,30.64
2022-09-24T11:08:47.359Z,30.45
2022-09-24T11:11:20.946Z,29.66
2022-09-24T11:14:06.666Z,30.03
2022-09-24T11:16:39.058Z,30.78
2022-09-24T11:19:06.346Z,30.06
2022-09-24T11:21:52.012Z,30.40
2022-09-24T11:24:19.118Z,29.40
2022-09-24T11:26:49.687Z,29.46
2022-09-24T11:29:22.690Z,30.12
2022-09-24T11:31:56.775Z,28.65
2022-09-24T11:34:37.829Z,29.90
2022-09-24T11:37:17.379Z,29.89
2022-09-24T11:39:48.787Z,31.79
2022-09-24T11:42:29.725Z,30.52
2022-09-24T11:45:06.871Z,29.71
2022-09-24T11:47:34.269Z,30.05
2022-09-24T11:50:14.205Z,30.19
2022-09-24T11:52:48.407Z,29.85
2022-09-24T11:55:15.522Z,30.76
2022-09-24T11:57:44.611Z,29.44
2022-09-24T12:00:12.040Z,29.41
2022-09-24T12:02:47.950Z,30.03
2022-09-24T12:05:19.110Z,29.70
2022-09-24T12:07:51.060Z,29.22
2022-09-24T12:10:25.099Z,30.71
2022-09-24T12:12:53.630Z,30.51
2022-09-24T12:15:24.850Z,29.65
2022-09-24T12:17:57.863Z,29.22
2022-09-24T12:20:29.461Z,28.66
2022-09-24T12:23:00.222Z,29.05
2022-09-24T12:25:29.590Z,29.45
2022-09-24T12:27:56.721Z,29.86
2022-09-24T12:30:48.892Z,29.32
2022-09-24T12:33:25.705Z,30.32
2022-09-24T12:35:55.849Z,30.46
2022-09-24T12:38:34.143Z,29.65
2022-09-24T12:41:20.407Z,30.30
2022-09-24T12:44:04.219Z,30.65
2022-09-24T12:46:45.091Z,30.41
2022-09-24T12:49:15.647Z,31.19
2022-09-24T12:51:42.777Z,30.35
2022-09-24T12:54:30.780Z,30.25
2022-09-24T12:57:13.434Z,29.72
2022-09-24T12:59:55.863Z,30.79
2022-09-24T13:02:24.575Z,30.65
2022-09-24T13:05:00.909Z,31.40
2022-09-24T13:07:38.170Z,30.19
2022-09-24T13:10:12.181Z,30.24
2022-09-24T13:12:42.636Z,31.38
2022-09-24T13:15:29.204Z,30.52
2022-09-24T13:18:00.322Z,30.56
2022-09-24T13:20:27.451Z,31.63
2022-09-24T13:22:56.017Z,30.94
2022-09-24T13:25:23.944Z,30.79
2022-09-24T13:27:58.693Z,30.68
2022-09-24T13:30:29.163Z,31.78
2022-09-24T13:32:58.767Z,31.67
2022-09-24T13:35:29.217Z,31.62
2022-09-24T13:38:07.178Z,31.53
2022-09-24T13:40:37.060Z,30.43
2022-09-24T13:43:04.924Z,31.60
2022-09-24T13:45:32.234Z,30.47
2022-09-24T13:48:01.216Z,30.37
2022-09-24T13:50:35.831Z,30.40
2022-09-24T13:53:06.522Z,29.93
2022-09-24T13:55:34.004Z,29.50
2022-09-24T13:58:01.188Z,29.85
2022-09-24T14:00:29.261Z,29.47
2022-09-24T14:03:01.243Z,29.46
2022-09-24T14:05:29.250Z,30.01
2022-09-24T14:08:04.731Z,30.25
2022-09-24T14:10:32.241Z,30.24
2022-09-24T14:13:05.877Z,29.85
2022-09-24T14:15:33.113Z,30.36
2022-09-24T14:18:00.780Z,31.82
2022-09-24T14:20:32.958Z,31.61
2022-09-24T14:23:00.347Z,31.26
2022-09-24T14:25:28.743Z,31.82
2022-09-24T14:27:55.958Z,31.89
2022-09-24T14:30:24.136Z,31.45
2022-09-24T14:32:57.017Z,30.65
2022-09-24T14:35:30.040Z,30.39
2022-09-24T14:38:09.565Z,31.59
2022-09-24T14:40:56.530Z,31.56
2022-09-24T14:43:31.179Z,31.23
2022-09-24T14:46:07.007Z,31.48
2022-09-24T14:48:34.431Z,30.79
2022-09-24T14:51:02.109Z,31.10
2022-09-24T14:53:29.752Z,31.29
2022-09-24T14:55:57.520Z,31.82
2022-09-24T14:58:34.929Z,31.04
2022-09-24T15:01:15.710Z,31.29
2022-09-24T15:03:50.757Z,31.07
2022-09-24T15:06:23.975Z,31.22
2022-09-24T15:09:11.675Z,31.82
2022-09-24T15:11:43.550Z,30.72
2022-09-24T15:14:14.762Z,31.65
2022-09-24T15:16:42.130Z,31.46
2022-09-24T15:19:27.050Z,32.32
2022-09-24T15:21:57.480Z,31.91
2022-09-24T15:24:25.196Z,32.56
2022-09-24T15:27:03.145Z,32.08
2022-09-24T15:29:30.609Z,31.99
2022-09-24T15:31:58.134Z,31.05
2022-09-24T15:34:25.617Z,31.04
2022-09-24T15:37:15.293Z,31.65
2022-09-24T15:39:48.566Z,32.48
2022-09-24T15:42:19.698Z,31.84
2022-09-24T15:44:47.575Z,32.42
2022-09-24T15:47:14.763Z,31.26
2022-09-24T15:49:42.480Z,31.93
2022-09-24T15:52:13.156Z,31.32
2022-09-24T15:54:40.542Z,31.49
2022-09-24T15:57:09.514Z,31.52
2022-09-24T15:59:36.656Z,31.15
2022-09-24T16:02:04.326Z,31.40
2022-09-24T16:04:31.792Z,32.49
2022-09-24T16:06:59.103Z,32.02
2022-09-24T16:09:26.231Z,33.22
2022-09-24T16:11:55.403Z,32.54
2022-09-24T16:14:22.555Z,32.10
2022-09-24T16:16:49.704Z,31.28
2022-09-24T16:19:17.121Z,32.11
2022-09-24T16:21:44.265Z,32.40
2022-09-24T16:24:11.400Z,32.85
2022-09-24T16:26:38.830Z,32.70
2022-09-24T16:29:06.358Z,33.44
2022-09-24T16:31:33.603Z,32.25
2022-09-24T16:34:01.039Z,31.16
2022-09-24T16:36:28.259Z,31.93
2022-09-24T16:38:55.458Z,32.25
2022-09-24T16:41:22.903Z,32.23
2022-09-24T16:43:50.062Z,32.10
2022-09-24T16:46:20.672Z,32.41
2022-09-24T16:48:51.398Z,32.90
2022-09-24T16:51:18.859Z,31.57
2022-09-24T16:53:49.920Z,31.82
2022-09-24T16:56:17.760Z,32.60
2022-09-24T16:58:45.475Z,32.41
2022-09-24T17:01:16.629Z,32.36
2022-09-24T17:03:44.222Z,33.44
2022-09-24T17:06:18.498Z,33.00
2022-09-24T17:09:04.789Z,33.15
2022-09-24T17:11:31.956Z,33.83
2022-09-24T17:13:59.824Z,33.54
2022-09-24T17:16:27.287Z,33.14
2022-09-24T17:18:54.588Z,33.02
2022-09-24T17:21:22.368Z,33.72
2022-09-24T17:23:49.723Z,33.91
2022-09-24T17:26:17.919Z,33.92
2022-09-24T17:28:46.073Z,34.12
2022-09-24T17:31:15.150Z,33.67
2022-09-24T17:33:43.974Z,34.01
2022-09-24T17:36:12.529Z,34.18
2022-09-24T17:38:39.831Z,34.56
2022-09-24T17:41:07.926Z,34.11
2022-09-24T17:43:35.684Z,34.20
2022-09-24T17:46:04.054Z,33.89
2022-09-24T17:48:32.364Z,35.69
2022-09-24T17:51:00.247Z,34.83
2022-09-24T17:53:29.894Z,34.73
2022-09-24T17:55:57.041Z,34.23
2022-09-24T17:58:24.776Z,35.01
2022-09-24T18:00:52.811Z,35.19
2022-09-24T18:03:20.327Z,34.92
2022-09-24T18:05:47.451Z,34.89
2022-09-24T18:08:14.596Z,34.95
2022-09-24T18:10:42.037Z,35.15
2022-09-24T18:13:09.804Z,35.46
2022-09-24T18:15:37.179Z,34.60
2022-09-24T18:18:04.652Z,34.83
2022-09-24T18:20:31.880Z,36.13
2022-09-24T18:22:59.028Z,36.08
2022-09-24T18:25:27.560Z,35.03
2022-09-24T18:27:55.467Z,36.19
2022-09-24T18:30:23.197Z,35.52
2022-09-24T18:32:50.650Z,36.27
2022-09-24T18:35:18.001Z,34.79
2022-09-24T18:37:45.136Z,35.48
2022-09-24T18:40:12.613Z,36.21
2022-09-24T18:42:39.815Z,35.12
2022-09-24T18:45:07.265Z,34.84
2022-09-24T18:47:35.900Z,34.22
2022-09-24T18:50:03.036Z,34.51
2022-09-24T18:52:30.313Z,35.23
2022-09-24T18:54:57.810Z,35.38
2022-09-24T18:57:24.972Z,35.19
2022-09-24T18:59:52.172Z,34.12
2022-09-24T19:02:23.821Z,34.40
2022-09-24T19:04:51.091Z,36.29
2022-09-24T19:07:18.262Z,35.28
2022-09-24T19:09:46.700Z,35.78
2022-09-24T19:12:13.905Z,35.84
2022-09-24T19:14:41.746Z,35.11
2022-09-24T19:17:09.163Z,36.38
2022-09-24T19:19:36.761Z,36.56
2022-09-24T19:22:03.907Z,35.45
2022-09-24T19:24:31.313Z,35.97
2022-09-24T19:26:58.475Z,36.88
2022-09-24T19:29:25.700Z,36.75
2022-09-24T19:31:53.409Z,35.29
2022-09-24T19:34:20.762Z,35.79
2022-09-24T19:36:47.914Z,36.89
2022-09-24T19:39:15.856Z,36.72
2022-09-24T19:41:43.189Z,36.22
2022-09-24T19:44:11.392Z,36.87
2022-09-24T19:46:39.473Z,36.69
2022-09-24T19:49:07.042Z,36.64
2022-09-24T19:51:34.340Z,37.04
2022-09-24T19:54:03.160Z,36.57
2022-09-24T19:56:31.933Z,36.73
2022-09-24T19:58:59.642Z,37.04
2022-09-24T20:01:31.213Z,36.72
2022-09-24T20:03:59.539Z,37.27
2022-09-24T20:06:28.921Z,36.28
2022-09-24T20:08:57.206Z,36.94
2022-09-24T20:11:25.677Z,35.80
2022-09-24T20:13:53.868Z,36.44
2022-09-24T20:16:21.845Z,36.70
2022-09-24T20:18:50.009Z,36.71
2022-09-24T20:21:17.843Z,36.89
2022-09-24T20:23:45.516Z,37.86
2022-09-24T20:26:32.087Z,37.34
2022-09-24T20:28:59.316Z,37.52
2022-09-24T20:31:26.811Z,37.19
2022-09-24T20:33:53.994Z,36.50
2022-09-24T20:36:24.447Z,36.77
2022-09-24T20:38:52.925Z,36.15
2022-09-24T20:41:21.230Z,36.52
2022-09-24T20:43:48.370Z,36.34
2022-09-24T20:46:17.418Z,36.81
2022-09-24T20:48:44.804Z,36.38
2022-09-24T20:51:12.818Z,36.82
2022-09-24T20:53:40.422Z,36.48
2022-09-24T20:56:07.565Z,36.94
2022-09-24T20:58:35.070Z,36.72
2022-09-24T21:01:02.566Z,37.10
2022-09-24T21:03:44.042Z,36.67
2022-09-24T21:06:12.615Z,36.16
2022-09-24T21:08:41.047Z,36.49
2022-09-24T21:11:09.770Z,36.20
2022-09-24T21:13:41.109Z,35.85
2022-09-24T21:16:09.554Z,36.00
2022-09-24T21:18:40.407Z,36.51
2022-09-24T21:21:08.960Z,36.72
2022-09-24T21:23:38.096Z,36.28
2022-09-24T21:26:16.048Z,36.46
2022-09-24T21:28:44.195Z,36.21
2022-09-24T21:31:11.401Z,37.15
2022-09-24T21:33:38.766Z,38.26
2022-09-24T21:36:06.584Z,37.77
2022-09-24T21:38:33.927Z,37.80
2022-09-24T21:41:04.306Z,37.21
2022-09-24T21:43:34.794Z,36.90
2022-09-24T21:46:05.060Z,37.46
2022-09-24T21:48:32.776Z,37.87
2022-09-24T21:51:06.143Z,37.16
2022-09-24T21:53:33.690Z,37.20
2022-09-24T21:56:01.207Z,37.02
2022-09-24T21:58:29.780Z,37.37
2022-09-24T22:01:03.158Z,37.54
2022-09-24T22:03:32.273Z,37.10
2022-09-24T22:06:03.218Z,38.24
2022-09-24T22:08:31.871Z,38.23
2022-09-24T22:11:00.223Z,37.84
2022-09-24T22:13:27.749Z,38.02
2022-09-24T22:15:56.649Z,39.00
2022-09-24T22:18:24.087Z,38.60
2022-09-24T22:20:51.238Z,38.38
2022-09-24T22:23:18.485Z,38.49
2022-09-24T22:25:46.344Z,38.57
2022-09-24T22:28:16.377Z,37.71
2022-09-24T22:30:47.491Z,37.58
2022-09-24T22:33:34.639Z,37.28
2022-09-24T22:36:03.445Z,37.63
2022-09-24T22:38:31.226Z,37.69
2022-09-24T22:41:04.864Z,37.66
2022-09-24T22:43:32.423Z,37.35
2022-09-24T22:46:00.120Z,37.26
2022-09-24T22:48:27.693Z,37.21
2022-09-24T22:50:55.201Z,37.36
2022-09-24T22:53:22.499Z,37.25
2022-09-24T22:55:52.606Z,37.30
2022-09-24T22:58:20.303Z,37.35
2022-09-24T23:00:47.527Z,37.36
2022-09-24T23:03:14.717Z,37.36
2022-09-24T23:05:42.523Z,37.33
2022-09-24T23:08:09.669Z,37.64
2022-09-24T23:10:36.858Z,37.49
2022-09-24T23:13:04.309Z,37.58
2022-09-24T23:15:31.448Z,37.64
2022-09-24T23:17:58.593Z,37.46
2022-09-24T23:20:26.016Z,37.33
2022-09-24T23:22:53.144Z,37.21
2022-09-24T23:25:20.278Z,37.21
2022-09-24T23:27:47.702Z,37.33
2022-09-24T23:30:14.892Z,37.26
2022-09-24T23:32:42.025Z,37.53
2022-09-24T23:35:09.458Z,37.50
2022-09-24T23:37:36.632Z,37.61
2022-09-24T23:40:03.898Z,37.50
2022-09-24T23:42:31.411Z,37.71
2022-09-24T23:44:58.540Z,37.46
2022-09-24T23:47:25.729Z,37.67
2022-09-24T23:49:53.178Z,37.89
2022-09-24T23:52:20.295Z,37.89
2022-09-24T23:54:47.693Z,38.19
2022-09-24T23:57:15.547Z,37.86
2022-09-24T23:59:42.711Z,37.95
